createdAt,value
2018-08-06T00:03:01.368Z,14.8
2018-08-06T00:13:01.371Z,14.7
2018-08-06T00:28:01.325Z,14.7
2018-08-06T00:38:01.319Z,14.8
2018-08-06T00:43:01.389Z,14.9
2018-08-06T00:48:01.257Z,15.0
2018-08-06T00:53:01.328Z,15.1
2018-08-06T00:58:01.263Z,15.2
2018-08-06T01:03:01.423Z,15.3
2018-08-06T01:08:01.301Z,15.4
2018-08-06T01:18:01.328Z,15.5
2018-08-06T01:33:01.334Z,15.5
2018-08-06T01:48:01.356Z,15.6
2018-08-06T02:03:01.343Z,15.5
2018-08-06T02:08:01.342Z,15.4
2018-08-06T02:13:01.331Z,15.3
2018-08-06T02:18:01.272Z,15.2
2018-08-06T02:23:01.378Z,15.1
2018-08-06T02:28:01.347Z,15.0
2018-08-06T02:33:01.396Z,14.9
2018-08-06T02:43:01.468Z,14.8
2018-08-06T02:53:01.402Z,14.7
2018-08-06T02:58:01.477Z,14.6
2018-08-06T03:03:01.430Z,14.5
2018-08-06T03:13:01.398Z,14.4
2018-08-06T03:23:01.376Z,14.3
2018-08-06T03:33:01.424Z,14.2
2018-08-06T03:43:01.375Z,14.1
2018-08-06T03:53:01.404Z,14.0
2018-08-06T04:08:01.431Z,14.0
2018-08-06T04:23:01.405Z,14.0
2018-08-06T04:33:01.504Z,14.1
2018-08-06T04:43:01.416Z,14.2
2018-08-06T04:48:01.418Z,14.3
2018-08-06T04:53:01.374Z,14.4
2018-08-06T05:03:01.436Z,14.6
2018-08-06T05:08:01.404Z,14.7
2018-08-06T05:13:01.414Z,14.9
2018-08-06T05:18:01.406Z,15.1
2018-08-06T05:23:06.421Z,15.4
2018-08-06T05:28:01.406Z,15.6
2018-08-06T05:33:01.407Z,15.9
2018-08-06T05:38:01.407Z,16.1
2018-08-06T05:43:01.491Z,16.4
2018-08-06T05:48:01.417Z,16.6
2018-08-06T05:53:01.452Z,17.0
2018-08-06T05:58:01.420Z,17.2
2018-08-06T06:03:01.486Z,17.5
2018-08-06T06:08:01.440Z,17.6
2018-08-06T06:13:01.472Z,17.8
2018-08-06T06:18:01.307Z,17.9
2018-08-06T06:23:01.374Z,18.0
2018-08-06T06:28:01.274Z,18.1
2018-08-06T06:33:01.380Z,18.3
2018-08-06T06:38:01.318Z,18.4
2018-08-06T06:43:01.352Z,18.6
2018-08-06T06:48:01.276Z,18.7
2018-08-06T06:53:01.389Z,19.0
2018-08-06T06:58:01.269Z,19.2
2018-08-06T07:03:01.304Z,19.4
2018-08-06T07:08:01.277Z,19.6
2018-08-06T07:13:01.269Z,19.8
2018-08-06T07:18:01.284Z,19.9
2018-08-06T07:23:01.348Z,20.2
2018-08-06T07:28:01.290Z,20.4
2018-08-06T07:33:01.346Z,20.6
2018-08-06T07:38:01.289Z,20.8
2018-08-06T07:43:01.362Z,21.0
2018-08-06T07:48:01.314Z,21.1
2018-08-06T07:53:01.431Z,21.3
2018-08-06T07:58:01.276Z,21.5
2018-08-06T08:03:01.286Z,21.7
2018-08-06T08:08:01.343Z,21.9
2018-08-06T08:13:01.403Z,22.1
2018-08-06T08:18:01.274Z,22.2
2018-08-06T08:23:01.334Z,22.4
2018-08-06T08:33:01.132Z,22.6
2018-08-06T08:38:01.307Z,22.8
2018-08-06T08:43:01.333Z,23.0
2018-08-06T08:48:01.280Z,23.1
2018-08-06T08:53:01.334Z,23.3
2018-08-06T08:58:01.309Z,23.4
2018-08-06T09:03:01.299Z,23.6
2018-08-06T09:08:01.273Z,23.8
2018-08-06T09:13:01.392Z,23.9
2018-08-06T09:28:01.343Z,23.9
2018-08-06T09:33:01.277Z,24.1
2018-08-06T09:38:01.266Z,24.3
2018-08-06T09:43:01.337Z,24.5
2018-08-06T09:48:01.325Z,24.6
2018-08-06T09:53:01.375Z,24.8
2018-08-06T10:08:01.253Z,24.9
2018-08-06T10:13:01.352Z,25.1
2018-08-06T10:18:01.261Z,25.2
2018-08-06T10:23:01.335Z,25.3
2018-08-06T10:28:01.270Z,25.4
2018-08-06T10:33:01.347Z,25.6
2018-08-06T10:38:01.264Z,25.7
2018-08-06T10:43:01.302Z,25.9
2018-08-06T10:48:01.270Z,26.1
2018-08-06T10:53:01.354Z,26.3
2018-08-06T10:59:01.334Z,26.5
2018-08-06T11:09:01.383Z,26.3
2018-08-06T11:14:01.343Z,26.4
2018-08-06T11:19:01.267Z,26.3
2018-08-06T11:29:01.261Z,26.5
2018-08-06T11:34:01.267Z,26.8
2018-08-06T11:39:01.343Z,26.9
2018-08-06T11:44:01.270Z,27.0
2018-08-06T11:49:01.316Z,27.1
2018-08-06T11:54:01.266Z,27.2
2018-08-06T11:59:01.320Z,27.3
2018-08-06T12:04:01.256Z,27.5
2018-08-06T12:14:01.413Z,27.7
2018-08-06T12:24:01.413Z,27.8
2018-08-06T12:29:01.329Z,28.0
2018-08-06T12:44:01.343Z,28.1
2018-08-06T12:49:01.460Z,28.0
2018-08-06T12:54:01.349Z,28.1
2018-08-06T12:59:01.400Z,28.3
2018-08-06T13:04:01.305Z,28.4
2018-08-06T13:09:01.317Z,28.6
2018-08-06T13:14:01.273Z,28.7
2018-08-06T13:24:01.340Z,28.6
2018-08-06T13:34:01.126Z,28.7
2018-08-06T13:39:01.327Z,28.8
2018-08-06T13:49:01.197Z,28.9
2018-08-06T13:59:01.301Z,28.8
2018-08-06T14:09:01.428Z,28.9
2018-08-06T14:14:01.276Z,29.0
2018-08-06T14:19:01.343Z,29.2
2018-08-06T14:24:01.275Z,29.4
2018-08-06T14:29:01.360Z,29.5
2018-08-06T14:34:01.256Z,29.6
2018-08-06T14:49:01.135Z,29.6
2018-08-06T14:54:01.267Z,29.5
2018-08-06T14:59:01.371Z,29.4
2018-08-06T15:09:01.404Z,29.3
2018-08-06T15:14:01.265Z,29.2
2018-08-06T15:29:01.354Z,29.3
2018-08-06T15:44:01.341Z,29.3
2018-08-06T15:54:01.329Z,29.2
2018-08-06T16:04:01.095Z,29.0
2018-08-06T16:09:01.427Z,28.9
2018-08-06T16:14:01.335Z,28.6
2018-08-06T16:19:01.344Z,28.3
2018-08-06T16:24:01.278Z,28.0
2018-08-06T16:29:01.333Z,27.8
2018-08-06T16:34:01.276Z,27.5
2018-08-06T16:39:01.342Z,27.4
2018-08-06T16:44:01.281Z,27.3
2018-08-06T16:49:01.420Z,27.2
2018-08-06T16:54:01.419Z,27.1
2018-08-06T17:04:06.276Z,27.0
2018-08-06T17:09:01.312Z,26.9
2018-08-06T17:14:01.092Z,26.8
2018-08-06T17:19:01.293Z,26.7
2018-08-06T17:24:01.270Z,26.5
2018-08-06T17:29:01.226Z,26.3
2018-08-06T17:34:01.265Z,26.1
2018-08-06T17:39:01.260Z,26.0
2018-08-06T17:44:01.232Z,25.8
2018-08-06T17:49:01.265Z,25.7
2018-08-06T17:54:01.279Z,25.5
2018-08-06T17:59:01.295Z,25.4
2018-08-06T18:04:06.266Z,25.2
2018-08-06T18:09:01.341Z,25.1
2018-08-06T18:15:01.244Z,25.0
2018-08-06T18:20:01.233Z,24.9
2018-08-06T18:25:01.268Z,24.8
2018-08-06T18:30:01.239Z,24.7
2018-08-06T18:35:01.264Z,24.6
2018-08-06T18:40:01.262Z,24.4
2018-08-06T18:45:01.275Z,24.2
2018-08-06T18:50:01.264Z,24.0
2018-08-06T18:55:01.280Z,23.8
2018-08-06T19:00:01.254Z,23.5
2018-08-06T19:06:01.261Z,23.3
2018-08-06T19:11:01.291Z,23.0
2018-08-06T19:16:01.287Z,22.8
2018-08-06T19:21:01.273Z,22.5
2018-08-06T19:26:01.261Z,22.3
2018-08-06T19:31:01.268Z,22.0
2018-08-06T19:36:01.267Z,21.8
2018-08-06T19:41:01.272Z,21.5
2018-08-06T19:46:01.274Z,21.4
2018-08-06T19:51:01.276Z,21.2
2018-08-06T19:56:01.268Z,21.1
2018-08-06T20:01:01.080Z,21.0
2018-08-06T20:06:01.198Z,20.9
2018-08-06T20:11:01.263Z,20.7
2018-08-06T20:16:01.267Z,20.6
2018-08-06T20:21:01.261Z,20.5
2018-08-06T20:26:01.274Z,20.4
2018-08-06T20:31:01.122Z,20.3
2018-08-06T20:36:01.129Z,20.2
2018-08-06T20:41:01.523Z,20.1
2018-08-06T20:46:01.267Z,20.0
2018-08-06T20:51:01.330Z,19.9
2018-08-06T20:56:01.348Z,19.8
2018-08-06T21:01:01.273Z,19.7
2018-08-06T21:06:01.275Z,19.6
2018-08-06T21:11:01.336Z,19.5
2018-08-06T21:21:01.296Z,19.3
2018-08-06T21:26:01.269Z,19.2
2018-08-06T21:31:01.380Z,19.1
2018-08-06T21:36:01.447Z,19.0
2018-08-06T21:41:01.322Z,18.9
2018-08-06T21:51:01.333Z,18.8
2018-08-06T22:01:01.557Z,18.7
2018-08-06T22:11:01.360Z,18.6
2018-08-06T22:21:01.330Z,18.5
2018-08-06T22:36:01.323Z,18.5
2018-08-06T22:41:01.396Z,18.4
2018-08-06T22:46:01.338Z,18.3
2018-08-06T22:56:01.456Z,18.2
2018-08-06T23:11:01.455Z,18.1
2018-08-06T23:21:01.365Z,18.0
2018-08-06T23:26:01.260Z,17.9
2018-08-06T23:31:01.342Z,17.8
2018-08-06T23:46:01.335Z,17.8
2018-08-06T23:56:01.388Z,17.7
